Terminal Aerodrome Forecast
Issued by NWS Green Bay, WI

Home | Current Version | Previous Version | Graphics & Text | Print | Product List | Glossary On
Versions: 1 2 3 4 5 6 7 8 9 10 11 12 13 14 15 16 17 18 19 20 21 22 23 24 25 26 27 28 29 30 31 32 33 34
195
FTUS43 KGRB 262058 AAB
TAFGRB
TAF AMD
KGRB 262058Z 2621/2718 04012G19KT P6SM SCT025 SCT070
     FM270000 04011KT P6SM SCT080
     FM270700 03007KT P6SM SKC
     FM271600 06014G23KT P6SM SCT250=

USA.gov is the U.S. government's official web portal to all federal, state and local government web resources and services.